DTA121 FNCA-FNBJ
Flight info
| Callsign | DTA121 |
|---|---|
| Flight time | 0h 48m |
| Altitude | 23000 |
| Route | EXINA DCT SO R987 IMLEX DCT VBD |
| Aircraft | B737/M-SDE2E3FGHIRWXY/LB1 |
Departure
| Time | 2026-04-29 20:11 |
|---|---|
| Airport | Cabinda Airport (FNCA) |
Arrival
| Time | 2026-04-29 20:59 |
|---|---|
| Airport | Dr. Antonio Agostinho Neto International Airport (FNBJ) |
| Time | Latitude | Longitude | Altitude | Speed | Heading |
|---|---|---|---|---|---|
| 2026-04-29 19:51 | -5.58654 | 12.18901 | 69 ft | 0 kts | 180° |
| 2026-04-29 20:06 | -5.58657 | 12.18901 | 69 ft | 1 kts | 180° |
| 2026-04-29 20:07 | -5.58662 | 12.18910 | 62 ft | 1 kts | 91° |
| 2026-04-29 20:07 | -5.58653 | 12.18917 | 61 ft | 2 kts | 43° |
| 2026-04-29 20:07 | -5.58642 | 12.18921 | 61 ft | 2 kts | 6° |
| 2026-04-29 20:07 | -5.58627 | 12.18919 | 69 ft | 3 kts | 353° |
| 2026-04-29 20:08 | -5.58600 | 12.18915 | 69 ft | 4 kts | 350° |
| 2026-04-29 20:08 | -5.58586 | 12.18901 | 64 ft | 4 kts | 293° |
| 2026-04-29 20:08 | -5.58587 | 12.18865 | 68 ft | 4 kts | 268° |
| 2026-04-29 20:08 | -5.58588 | 12.18840 | 68 ft | 4 kts | 268° |
| 2026-04-29 20:09 | -5.58588 | 12.18814 | 68 ft | 4 kts | 268° |
| 2026-04-29 20:09 | -5.58600 | 12.18796 | 68 ft | 3 kts | 204° |
| 2026-04-29 20:09 | -5.58620 | 12.18796 | 68 ft | 1 kts | 178° |
| 2026-04-29 20:09 | -5.58623 | 12.18796 | 68 ft | 0 kts | 178° |
| 2026-04-29 20:10 | -5.58624 | 12.18796 | 68 ft | 1 kts | 178° |
| 2026-04-29 20:10 | -5.58786 | 12.18800 | 69 ft | 60 kts | 179° |
| 2026-04-29 20:10 | -5.59456 | 12.18811 | 65 ft | 129 kts | 179° |
| 2026-04-29 20:10 | -5.60501 | 12.18827 | 354 ft | 159 kts | 179° |
| 2026-04-29 20:11 | -5.61601 | 12.18840 | 1122 ft | 156 kts | 180° |
| 2026-04-29 20:11 | -5.62685 | 12.18851 | 1898 ft | 157 kts | 181° |
| 2026-04-29 20:11 | -5.63874 | 12.18818 | 2312 ft | 187 kts | 182° |
| 2026-04-29 20:11 | -5.65290 | 12.18771 | 2602 ft | 218 kts | 182° |
| 2026-04-29 20:12 | -5.66885 | 12.18725 | 3069 ft | 236 kts | 181° |
| 2026-04-29 20:12 | -5.68608 | 12.18683 | 3514 ft | 261 kts | 181° |
| 2026-04-29 20:12 | -5.70457 | 12.18643 | 4314 ft | 270 kts | 181° |
| 2026-04-29 20:12 | -5.72327 | 12.18607 | 5243 ft | 274 kts | 180° |
| 2026-04-29 20:13 | -5.74247 | 12.18574 | 6209 ft | 277 kts | 180° |
| 2026-04-29 20:13 | -5.76189 | 12.18542 | 7107 ft | 281 kts | 179° |
| 2026-04-29 20:13 | -5.78159 | 12.18512 | 8001 ft | 285 kts | 179° |
| 2026-04-29 20:13 | -5.80150 | 12.18482 | 8892 ft | 289 kts | 179° |
| 2026-04-29 20:14 | -5.82178 | 12.18452 | 9775 ft | 293 kts | 178° |
| 2026-04-29 20:14 | -5.84239 | 12.18422 | 10443 ft | 304 kts | 179° |
| 2026-04-29 20:14 | -5.86427 | 12.18392 | 10910 ft | 320 kts | 179° |
| 2026-04-29 20:14 | -5.88711 | 12.18358 | 11686 ft | 325 kts | 179° |
| 2026-04-29 20:15 | -5.90941 | 12.18413 | 12518 ft | 325 kts | 169° |
| 2026-04-29 20:15 | -5.93116 | 12.19096 | 13402 ft | 325 kts | 153° |
| 2026-04-29 20:15 | -5.94987 | 12.20367 | 14179 ft | 327 kts | 140° |
| 2026-04-29 20:15 | -5.96694 | 12.21862 | 14842 ft | 332 kts | 139° |
| 2026-04-29 20:16 | -5.98410 | 12.23418 | 15514 ft | 337 kts | 138° |
| 2026-04-29 20:16 | -6.00184 | 12.25028 | 16240 ft | 342 kts | 139° |
| 2026-04-29 20:16 | -6.01991 | 12.26653 | 16934 ft | 347 kts | 139° |
| 2026-04-29 20:16 | -6.03806 | 12.28271 | 17643 ft | 351 kts | 139° |
| 2026-04-29 20:17 | -6.05649 | 12.29906 | 18318 ft | 355 kts | 140° |
| 2026-04-29 20:17 | -6.07518 | 12.31559 | 18903 ft | 360 kts | 139° |
| 2026-04-29 20:17 | -6.09387 | 12.33211 | 19501 ft | 364 kts | 139° |
| 2026-04-29 20:17 | -6.11299 | 12.34899 | 20104 ft | 368 kts | 139° |
| 2026-04-29 20:18 | -6.13322 | 12.36500 | 20722 ft | 371 kts | 147° |
| 2026-04-29 20:18 | -6.15577 | 12.37746 | 21468 ft | 370 kts | 156° |
| 2026-04-29 20:18 | -6.18032 | 12.38638 | 22267 ft | 370 kts | 160° |
| 2026-04-29 20:18 | -6.20496 | 12.39429 | 22762 ft | 372 kts | 161° |
| 2026-04-29 20:19 | -6.22971 | 12.40198 | 22950 ft | 374 kts | 161° |
| 2026-04-29 20:19 | -6.25460 | 12.40970 | 22945 ft | 373 kts | 161° |
| 2026-04-29 20:19 | -6.27936 | 12.41746 | 22951 ft | 371 kts | 161° |
| 2026-04-29 20:19 | -6.30368 | 12.42515 | 22961 ft | 371 kts | 161° |
| 2026-04-29 20:20 | -6.32826 | 12.43299 | 22959 ft | 370 kts | 161° |
| 2026-04-29 20:20 | -6.35278 | 12.44084 | 22960 ft | 370 kts | 161° |
| 2026-04-29 20:20 | -6.37733 | 12.44873 | 22958 ft | 370 kts | 161° |
| 2026-04-29 20:20 | -6.40187 | 12.45664 | 22962 ft | 370 kts | 161° |
| 2026-04-29 20:21 | -6.42649 | 12.46457 | 22957 ft | 371 kts | 161° |
| 2026-04-29 20:21 | -6.45108 | 12.47249 | 22959 ft | 371 kts | 161° |
| 2026-04-29 20:21 | -6.47575 | 12.48045 | 22957 ft | 372 kts | 161° |
| 2026-04-29 20:21 | -6.50038 | 12.48839 | 22955 ft | 372 kts | 161° |
| 2026-04-29 20:22 | -6.52504 | 12.49633 | 22957 ft | 372 kts | 161° |
| 2026-04-29 20:22 | -6.54965 | 12.50427 | 22960 ft | 372 kts | 161° |
| 2026-04-29 20:22 | -6.57433 | 12.51223 | 22956 ft | 372 kts | 161° |
| 2026-04-29 20:22 | -6.59909 | 12.52021 | 22953 ft | 372 kts | 161° |
| 2026-04-29 20:23 | -6.62375 | 12.52817 | 22954 ft | 372 kts | 161° |
| 2026-04-29 20:23 | -6.64844 | 12.53613 | 22955 ft | 372 kts | 161° |
| 2026-04-29 20:23 | -6.67312 | 12.54409 | 22951 ft | 372 kts | 161° |
| 2026-04-29 20:23 | -6.69779 | 12.55205 | 22953 ft | 372 kts | 161° |
| 2026-04-29 20:24 | -6.72243 | 12.56000 | 22958 ft | 372 kts | 161° |
| 2026-04-29 20:24 | -6.74709 | 12.56796 | 22955 ft | 372 kts | 161° |
| 2026-04-29 20:24 | -6.77179 | 12.57593 | 22956 ft | 372 kts | 161° |
| 2026-04-29 20:24 | -6.79647 | 12.58390 | 22955 ft | 372 kts | 161° |
| 2026-04-29 20:25 | -6.82084 | 12.59177 | 22953 ft | 372 kts | 161° |
| 2026-04-29 20:25 | -6.84550 | 12.59973 | 22957 ft | 372 kts | 161° |
| 2026-04-29 20:25 | -6.87013 | 12.60769 | 22953 ft | 372 kts | 161° |
| 2026-04-29 20:25 | -6.89481 | 12.61566 | 22954 ft | 372 kts | 161° |
| 2026-04-29 20:26 | -6.91943 | 12.62361 | 22953 ft | 372 kts | 161° |
| 2026-04-29 20:26 | -6.94419 | 12.63160 | 22957 ft | 372 kts | 161° |
| 2026-04-29 20:26 | -6.96919 | 12.63966 | 22952 ft | 372 kts | 161° |
| 2026-04-29 20:26 | -6.99381 | 12.64759 | 22957 ft | 372 kts | 161° |
| 2026-04-29 20:27 | -7.01857 | 12.65557 | 22956 ft | 372 kts | 161° |
| 2026-04-29 20:27 | -7.03488 | 12.66083 | 22957 ft | 372 kts | 161° |
| 2026-04-29 20:27 | -7.06791 | 12.67149 | 22957 ft | 373 kts | 161° |
| 2026-04-29 20:27 | -7.09259 | 12.67945 | 22956 ft | 373 kts | 161° |
| 2026-04-29 20:28 | -7.11729 | 12.68742 | 22958 ft | 373 kts | 161° |
| 2026-04-29 20:28 | -7.14201 | 12.69539 | 22963 ft | 373 kts | 161° |
| 2026-04-29 20:28 | -7.16675 | 12.70338 | 22953 ft | 373 kts | 161° |
| 2026-04-29 20:28 | -7.19148 | 12.71136 | 22958 ft | 373 kts | 161° |
| 2026-04-29 20:29 | -7.21623 | 12.71935 | 22956 ft | 373 kts | 161° |
| 2026-04-29 20:29 | -7.24066 | 12.72724 | 22957 ft | 373 kts | 161° |
| 2026-04-29 20:29 | -7.26542 | 12.73523 | 22952 ft | 373 kts | 161° |
| 2026-04-29 20:29 | -7.29013 | 12.74321 | 22958 ft | 373 kts | 161° |
| 2026-04-29 20:30 | -7.31492 | 12.75122 | 22959 ft | 373 kts | 161° |
| 2026-04-29 20:30 | -7.33968 | 12.75922 | 22957 ft | 373 kts | 161° |
| 2026-04-29 20:30 | -7.36446 | 12.76722 | 22955 ft | 374 kts | 161° |
| 2026-04-29 20:30 | -7.38917 | 12.77521 | 22957 ft | 374 kts | 161° |
| 2026-04-29 20:31 | -7.40561 | 12.78052 | 22962 ft | 374 kts | 161° |
| 2026-04-29 20:31 | -7.43873 | 12.79123 | 22956 ft | 374 kts | 161° |
| 2026-04-29 20:31 | -7.46353 | 12.79924 | 22958 ft | 374 kts | 161° |
| 2026-04-29 20:31 | -7.48832 | 12.80726 | 22960 ft | 374 kts | 161° |
| 2026-04-29 20:32 | -7.51315 | 12.81528 | 22959 ft | 374 kts | 161° |
| 2026-04-29 20:32 | -7.52987 | 12.82069 | 22957 ft | 374 kts | 161° |
| 2026-04-29 20:32 | -7.56335 | 12.83163 | 22954 ft | 374 kts | 159° |
| 2026-04-29 20:32 | -7.57923 | 12.83832 | 22945 ft | 373 kts | 152° |
| 2026-04-29 20:33 | -7.60923 | 12.85531 | 22959 ft | 373 kts | 149° |
| 2026-04-29 20:33 | -7.63185 | 12.86886 | 22955 ft | 373 kts | 148° |
| 2026-04-29 20:33 | -7.65380 | 12.88211 | 22957 ft | 373 kts | 148° |
| 2026-04-29 20:33 | -7.67609 | 12.89553 | 22959 ft | 373 kts | 148° |
| 2026-04-29 20:34 | -7.69838 | 12.90886 | 22956 ft | 373 kts | 149° |
| 2026-04-29 20:34 | -7.72105 | 12.92235 | 22961 ft | 373 kts | 149° |
| 2026-04-29 20:34 | -7.73629 | 12.93140 | 22957 ft | 373 kts | 149° |
| 2026-04-29 20:34 | -7.75857 | 12.94459 | 22961 ft | 373 kts | 149° |
| 2026-04-29 20:35 | -7.78097 | 12.95783 | 22957 ft | 374 kts | 149° |
| 2026-04-29 20:35 | -7.80344 | 12.97110 | 22955 ft | 374 kts | 149° |
| 2026-04-29 20:35 | -7.82589 | 12.98436 | 22954 ft | 374 kts | 149° |
| 2026-04-29 20:35 | -7.84830 | 12.99760 | 22958 ft | 374 kts | 149° |
| 2026-04-29 20:36 | -7.87075 | 13.01086 | 22956 ft | 374 kts | 149° |
| 2026-04-29 20:36 | -7.89320 | 13.02412 | 22961 ft | 374 kts | 149° |
| 2026-04-29 20:36 | -7.91565 | 13.03738 | 22959 ft | 374 kts | 149° |
| 2026-04-29 20:36 | -7.93782 | 13.05049 | 22958 ft | 372 kts | 149° |
| 2026-04-29 20:37 | -7.96005 | 13.06362 | 22947 ft | 367 kts | 149° |
| 2026-04-29 20:37 | -7.98223 | 13.07673 | 22957 ft | 364 kts | 149° |
| 2026-04-29 20:37 | -8.00414 | 13.08968 | 22967 ft | 365 kts | 149° |
| 2026-04-29 20:37 | -8.02614 | 13.10268 | 22927 ft | 367 kts | 149° |
| 2026-04-29 20:38 | -8.04831 | 13.11580 | 22589 ft | 368 kts | 149° |
| 2026-04-29 20:38 | -8.07043 | 13.12888 | 22166 ft | 369 kts | 149° |
| 2026-04-29 20:38 | -8.08507 | 13.13753 | 21899 ft | 366 kts | 149° |
| 2026-04-29 20:38 | -8.10636 | 13.15012 | 21461 ft | 359 kts | 149° |
| 2026-04-29 20:39 | -8.12816 | 13.16302 | 21026 ft | 354 kts | 150° |
| 2026-04-29 20:40 | -8.21961 | 13.21714 | 19167 ft | 344 kts | 150° |
| 2026-04-29 20:40 | -8.23994 | 13.22917 | 18741 ft | 341 kts | 150° |
| 2026-04-29 20:40 | -8.26024 | 13.24119 | 18313 ft | 335 kts | 150° |
| 2026-04-29 20:40 | -8.28017 | 13.25299 | 17840 ft | 329 kts | 150° |
| 2026-04-29 20:41 | -8.29977 | 13.26460 | 17395 ft | 323 kts | 150° |
| 2026-04-29 20:41 | -8.31926 | 13.27614 | 16978 ft | 319 kts | 150° |
| 2026-04-29 20:41 | -8.33838 | 13.28746 | 16569 ft | 317 kts | 150° |
| 2026-04-29 20:41 | -8.35763 | 13.29886 | 16161 ft | 315 kts | 150° |
| 2026-04-29 20:42 | -8.37649 | 13.31004 | 15761 ft | 313 kts | 150° |
| 2026-04-29 20:42 | -8.39522 | 13.32114 | 15363 ft | 312 kts | 150° |
| 2026-04-29 20:42 | -8.41413 | 13.33235 | 14962 ft | 310 kts | 150° |
| 2026-04-29 20:42 | -8.43267 | 13.34334 | 14564 ft | 309 kts | 150° |
| 2026-04-29 20:43 | -8.45142 | 13.35445 | 14160 ft | 307 kts | 149° |
| 2026-04-29 20:43 | -8.46986 | 13.36537 | 13742 ft | 307 kts | 149° |
| 2026-04-29 20:43 | -8.48759 | 13.37722 | 13320 ft | 305 kts | 140° |
| 2026-04-29 20:43 | -8.50344 | 13.39158 | 12962 ft | 301 kts | 137° |
| 2026-04-29 20:44 | -8.51857 | 13.40611 | 12568 ft | 299 kts | 136° |
| 2026-04-29 20:44 | -8.53357 | 13.42059 | 12169 ft | 297 kts | 136° |
| 2026-04-29 20:44 | -8.54855 | 13.43497 | 11774 ft | 296 kts | 136° |
| 2026-04-29 20:44 | -8.56367 | 13.44937 | 11376 ft | 294 kts | 136° |
| 2026-04-29 20:45 | -8.57859 | 13.46352 | 10982 ft | 293 kts | 136° |
| 2026-04-29 20:45 | -8.59367 | 13.47777 | 10578 ft | 292 kts | 136° |
| 2026-04-29 20:45 | -8.60851 | 13.49175 | 10212 ft | 291 kts | 136° |
| 2026-04-29 20:45 | -8.62305 | 13.50544 | 10089 ft | 280 kts | 136° |
| 2026-04-29 20:46 | -8.63711 | 13.51868 | 9811 ft | 274 kts | 136° |
| 2026-04-29 20:46 | -8.65052 | 13.53129 | 9699 ft | 251 kts | 136° |
| 2026-04-29 20:46 | -8.65909 | 13.53935 | 9581 ft | 238 kts | 136° |
| 2026-04-29 20:46 | -8.67431 | 13.55367 | 9391 ft | 214 kts | 135° |
| 2026-04-29 20:47 | -8.68479 | 13.56353 | 9258 ft | 196 kts | 135° |
| 2026-04-29 20:47 | -8.69439 | 13.57256 | 9058 ft | 184 kts | 135° |
| 2026-04-29 20:47 | -8.70372 | 13.58134 | 8867 ft | 185 kts | 135° |
| 2026-04-29 20:47 | -8.71006 | 13.58730 | 8739 ft | 183 kts | 135° |
| 2026-04-29 20:48 | -8.72300 | 13.59921 | 8544 ft | 194 kts | 140° |
| 2026-04-29 20:48 | -8.73395 | 13.60725 | 8286 ft | 192 kts | 143° |
| 2026-04-29 20:48 | -8.74495 | 13.61495 | 8039 ft | 186 kts | 143° |
| 2026-04-29 20:48 | -8.75542 | 13.62227 | 7811 ft | 180 kts | 143° |
| 2026-04-29 20:49 | -8.76218 | 13.62702 | 7677 ft | 178 kts | 143° |
| 2026-04-29 20:49 | -8.77580 | 13.63663 | 7413 ft | 179 kts | 143° |
| 2026-04-29 20:49 | -8.78605 | 13.64389 | 7203 ft | 180 kts | 143° |
| 2026-04-29 20:49 | -8.79637 | 13.65121 | 7006 ft | 182 kts | 143° |
| 2026-04-29 20:50 | -8.80683 | 13.65864 | 6774 ft | 185 kts | 143° |
| 2026-04-29 20:50 | -8.81746 | 13.66621 | 6526 ft | 185 kts | 143° |
| 2026-04-29 20:50 | -8.82444 | 13.67117 | 6384 ft | 181 kts | 143° |
| 2026-04-29 20:50 | -8.83478 | 13.67854 | 6148 ft | 177 kts | 143° |
| 2026-04-29 20:51 | -8.84502 | 13.68585 | 5979 ft | 183 kts | 143° |
| 2026-04-29 20:51 | -8.85563 | 13.69341 | 5717 ft | 182 kts | 143° |
| 2026-04-29 20:51 | -8.86575 | 13.70063 | 5497 ft | 178 kts | 143° |
| 2026-04-29 20:51 | -8.87582 | 13.70779 | 5299 ft | 176 kts | 145° |
| 2026-04-29 20:52 | -8.88743 | 13.71176 | 5129 ft | 174 kts | 175° |
| 2026-04-29 20:52 | -8.89966 | 13.71044 | 4933 ft | 177 kts | 198° |
| 2026-04-29 20:52 | -8.91021 | 13.70455 | 4747 ft | 170 kts | 221° |
| 2026-04-29 20:52 | -8.91775 | 13.69530 | 4554 ft | 167 kts | 232° |
| 2026-04-29 20:53 | -8.92499 | 13.68574 | 4369 ft | 171 kts | 231° |
| 2026-04-29 20:53 | -8.93229 | 13.67611 | 4168 ft | 173 kts | 232° |
| 2026-04-29 20:53 | -8.93951 | 13.66651 | 3976 ft | 171 kts | 232° |
| 2026-04-29 20:53 | -8.94657 | 13.65707 | 3808 ft | 162 kts | 232° |
| 2026-04-29 20:54 | -8.95939 | 13.63987 | 3384 ft | 145 kts | 232° |
| 2026-04-29 20:54 | -8.96547 | 13.63172 | 3234 ft | 146 kts | 232° |
| 2026-04-29 20:54 | -8.97163 | 13.62345 | 3092 ft | 147 kts | 232° |
| 2026-04-29 20:55 | -8.97778 | 13.61518 | 3027 ft | 148 kts | 232° |
| 2026-04-29 20:55 | -8.98409 | 13.60698 | 2781 ft | 147 kts | 231° |
| 2026-04-29 20:55 | -8.99039 | 13.59911 | 2562 ft | 139 kts | 229° |
| 2026-04-29 20:55 | -8.99652 | 13.59168 | 2308 ft | 138 kts | 229° |
| 2026-04-29 20:56 | -9.00272 | 13.58425 | 2126 ft | 138 kts | 228° |
| 2026-04-29 20:56 | -9.00892 | 13.57679 | 1955 ft | 139 kts | 229° |
| 2026-04-29 20:56 | -9.01505 | 13.56924 | 1801 ft | 136 kts | 231° |
| 2026-04-29 20:56 | -9.02057 | 13.56128 | 1587 ft | 141 kts | 236° |
| 2026-04-29 20:57 | -9.02417 | 13.55576 | 1531 ft | 136 kts | 233° |
| 2026-04-29 20:57 | -9.03135 | 13.54573 | 1237 ft | 134 kts | 235° |
| 2026-04-29 20:57 | -9.03652 | 13.53785 | 1062 ft | 134 kts | 234° |
| 2026-04-29 20:57 | -9.04211 | 13.53016 | 849 ft | 138 kts | 234° |
| 2026-04-29 20:58 | -9.04749 | 13.52233 | 677 ft | 136 kts | 234° |
| 2026-04-29 20:58 | -9.05296 | 13.51445 | 553 ft | 135 kts | 234° |
| 2026-04-29 20:58 | -9.05760 | 13.50777 | 548 ft | 94 kts | 234° |
| 2026-04-29 20:58 | -9.06055 | 13.50357 | 543 ft | 51 kts | 234° |
| 2026-04-29 20:59 | -9.06248 | 13.50073 | 543 ft | 46 kts | 236° |
| 2026-04-29 20:59 | -9.06287 | 13.49845 | 540 ft | 24 kts | 271° |
| 2026-04-29 20:59 | -9.06241 | 13.49784 | 538 ft | 7 kts | 19° |
| 2026-04-29 20:59 | -9.06198 | 13.49782 | 545 ft | 7 kts | 335° |
| 2026-04-29 21:00 | -9.06158 | 13.49759 | 537 ft | 6 kts | 331° |
| 2026-04-29 21:00 | -9.06122 | 13.49732 | 537 ft | 6 kts | 322° |
| 2026-04-29 21:00 | -9.06088 | 13.49704 | 537 ft | 6 kts | 322° |
| 2026-04-29 21:00 | -9.06054 | 13.49678 | 536 ft | 6 kts | 322° |
| 2026-04-29 21:01 | -9.06021 | 13.49651 | 536 ft | 6 kts | 322° |
| 2026-04-29 21:01 | -9.05988 | 13.49626 | 536 ft | 6 kts | 323° |
| 2026-04-29 21:01 | -9.05956 | 13.49601 | 536 ft | 6 kts | 323° |
| 2026-04-29 21:01 | -9.05924 | 13.49577 | 536 ft | 6 kts | 323° |
| 2026-04-29 21:02 | -9.05892 | 13.49553 | 536 ft | 6 kts | 323° |
| 2026-04-29 21:02 | -9.05860 | 13.49534 | 536 ft | 6 kts | 360° |
| 2026-04-29 21:02 | -9.05830 | 13.49558 | 536 ft | 6 kts | 43° |
| 2026-04-29 21:02 | -9.05806 | 13.49589 | 536 ft | 5 kts | 55° |
| 2026-04-29 21:03 | -9.05784 | 13.49619 | 536 ft | 5 kts | 53° |
| 2026-04-29 21:03 | -9.05761 | 13.49649 | 536 ft | 5 kts | 53° |
| 2026-04-29 21:03 | -9.05741 | 13.49680 | 536 ft | 5 kts | 57° |
| 2026-04-29 21:03 | -9.05721 | 13.49710 | 536 ft | 5 kts | 53° |
| 2026-04-29 21:04 | -9.05696 | 13.49734 | 539 ft | 5 kts | 22° |
| 2026-04-29 21:04 | -9.05665 | 13.49722 | 533 ft | 5 kts | 324° |
| 2026-04-29 21:04 | -9.05638 | 13.49702 | 535 ft | 5 kts | 324° |
| 2026-04-29 21:04 | -9.05611 | 13.49682 | 536 ft | 5 kts | 322° |
| 2026-04-29 21:05 | -9.05586 | 13.49662 | 535 ft | 5 kts | 322° |
| 2026-04-29 21:05 | -9.05560 | 13.49642 | 538 ft | 5 kts | 322° |
| 2026-04-29 21:05 | -9.05536 | 13.49623 | 536 ft | 4 kts | 323° |
| 2026-04-29 21:05 | -9.05511 | 13.49605 | 536 ft | 4 kts | 323° |
| 2026-04-29 21:06 | -9.05488 | 13.49587 | 536 ft | 4 kts | 323° |
| 2026-04-29 21:06 | -9.05464 | 13.49570 | 540 ft | 4 kts | 323° |
| 2026-04-29 21:06 | -9.05442 | 13.49552 | 536 ft | 4 kts | 322° |
| 2026-04-29 21:06 | -9.05420 | 13.49536 | 536 ft | 4 kts | 322° |
| 2026-04-29 21:07 | -9.05398 | 13.49519 | 535 ft | 4 kts | 322° |
| 2026-04-29 21:07 | -9.05378 | 13.49503 | 536 ft | 4 kts | 322° |
| 2026-04-29 21:07 | -9.05364 | 13.49493 | 536 ft | 4 kts | 322° |
| 2026-04-29 21:07 | -9.05338 | 13.49472 | 539 ft | 4 kts | 322° |
| 2026-04-29 21:08 | -9.05318 | 13.49457 | 534 ft | 3 kts | 322° |
| 2026-04-29 21:08 | -9.05300 | 13.49443 | 537 ft | 3 kts | 322° |
| 2026-04-29 21:08 | -9.05282 | 13.49429 | 535 ft | 3 kts | 322° |
| 2026-04-29 21:08 | -9.05264 | 13.49416 | 535 ft | 3 kts | 322° |
| 2026-04-29 21:09 | -9.05247 | 13.49403 | 542 ft | 3 kts | 322° |
| 2026-04-29 21:09 | -9.05231 | 13.49390 | 535 ft | 3 kts | 322° |
| 2026-04-29 21:09 | -9.05215 | 13.49378 | 536 ft | 3 kts | 322° |
| 2026-04-29 21:09 | -9.05205 | 13.49370 | 536 ft | 3 kts | 322° |
| 2026-04-29 21:10 | -9.05190 | 13.49358 | 541 ft | 3 kts | 322° |
| 2026-04-29 21:10 | -9.05176 | 13.49347 | 536 ft | 3 kts | 322° |
| 2026-04-29 21:10 | -9.05151 | 13.49328 | 536 ft | 4 kts | 322° |
| 2026-04-29 21:10 | -9.05123 | 13.49307 | 536 ft | 6 kts | 322° |
| 2026-04-29 21:11 | -9.05088 | 13.49279 | 539 ft | 7 kts | 322° |
| 2026-04-29 21:11 | -9.05062 | 13.49260 | 536 ft | 7 kts | 327° |
| 2026-04-29 21:11 | -9.05010 | 13.49280 | 535 ft | 7 kts | 49° |
| 2026-04-29 21:11 | -9.04992 | 13.49305 | 538 ft | 7 kts | 54° |
| 2026-04-29 21:12 | -9.04964 | 13.49341 | 536 ft | 6 kts | 52° |
| 2026-04-29 21:12 | -9.04937 | 13.49377 | 536 ft | 6 kts | 53° |
| 2026-04-29 21:12 | -9.04911 | 13.49410 | 536 ft | 3 kts | 43° |
| 2026-04-29 21:12 | -9.04893 | 13.49406 | 536 ft | 3 kts | 335° |
| 2026-04-29 21:13 | -9.04878 | 13.49395 | 541 ft | 3 kts | 322° |
| 2026-04-29 21:13 | -9.04864 | 13.49385 | 537 ft | 3 kts | 323° |
| 2026-04-29 21:13 | -9.04859 | 13.49381 | 534 ft | 0 kts | 322° |